Terminal Aerodrome Forecast
Issued by NWS

Home | Current Version | Previous Version | Text Only | Print | Product List | Glossary On
Versions: 1 2 3 4 5 6 7 8 9 10 11 12 13 14 15 16 17
593
FTUS45 KABQ 172038 AAA
TAFROW
TAF AMD
KROW 172038Z 1721/1818 VRB04KT P6SM VCSH OVC040
     FM180100 VRB05KT 4SM -RA OVC030
     FM180900 VRB05KT 1SM BR OVC010
     FM181300 17002KT P6SM BKN050=

USA.gov is the U.S. government's official web portal to all federal, state and local government web resources and services.